Time;durP1;ratioP1;P1;durP2;ratioP2;P2;SDS_P1;SDS_P2;PMS_P1;PMS_P2;Temp;Humidity;BMP_temperature;BMP_pressure;BME280_temperature;BME280_humidity;BME280_pressure;Samples;Min_cycle;Max_cycle;Signal;HPM_P1;HPM_P2
2021/05/06 00:01:43;;;;;;;9.80;1.60;;;5.60;99.90;;;3.99;87.58;99706.63;4869814;28;20095;-88
2021/05/06 00:33:37;;;;;;;8.43;1.85;;;5.50;99.90;;;3.96;86.29;99735.41;4828109;28;20092;-86
2021/05/06 00:36:00;;;;;;;15.50;1.88;;;5.50;99.90;;;3.96;85.25;99738.84;4854428;28;20084;-84
2021/05/06 00:38:25;;;;;;;14.10;1.88;;;;;;;3.96;86.48;99730.19;4871278;28;20139;-86
2021/05/06 00:41:00;;;;;;;13.95;1.83;;;5.50;99.90;;;3.92;85.08;99733.81;4855971;28;20085;-84
2021/05/06 00:43:53;;;;;;;24.52;1.95;;;5.50;99.90;;;3.94;85.02;99739.81;4871331;28;20418;-87
2021/05/06 00:54:43;;;;;;;10.50;1.58;;;5.50;99.90;;;3.86;85.31;99745.28;4869393;28;20079;-85
2021/05/06 00:57:10;;;;;;;14.15;1.70;;;5.40;99.90;;;3.81;84.47;99737.63;4869646;28;20418;-86
2021/05/06 01:02:39;;;;;;;18.25;1.52;;;5.40;99.90;;;3.82;83.90;99741.06;4863102;28;20084;-81
2021/05/06 01:05:07;;;;;;;15.90;1.88;;;5.30;99.90;;;3.73;84.99;99750.03;4870142;28;20162;-85
2021/05/06 01:07:50;;;;;;;13.77;1.45;;;5.30;99.90;;;3.70;85.06;99752.75;4869143;28;20076;-84
2021/05/06 01:10:27;;;;;;;12.05;1.50;;;5.30;99.90;;;3.70;85.42;99771.00;4847604;28;20807;-83
2021/05/06 01:12:51;;;;;;;7.50;1.20;;;5.30;99.90;;;3.67;85.09;99764.13;4851093;28;22723;-81
2021/05/06 01:15:15;;;;;;;14.07;1.75;;;5.20;99.90;;;3.64;84.62;99756.41;4850713;28;20090;-83
2021/05/06 01:17:38;;;;;;;3.28;0.90;;;;;;;3.67;84.21;99752.84;4868855;28;20141;-84
2021/05/06 01:20:01;;;;;;;9.82;1.80;;;5.20;99.90;;;3.65;84.39;99749.44;4871166;28;20087;-85
2021/05/06 01:22:26;;;;;;;9.80;1.58;;;5.20;99.90;;;3.60;84.91;99753.97;4869000;28;20095;-86
2021/05/06 01:24:53;;;;;;;20.05;1.52;;;5.10;99.90;;;3.53;85.64;99755.09;4870825;28;20080;-84
2021/05/06 01:27:17;;;;;;;8.98;1.15;;;;;;;3.51;84.97;99751.69;4869772;28;20089;-87
2021/05/06 01:29:44;;;;;;;18.65;2.05;;;5.10;99.90;;;3.47;85.48;99761.34;4871004;28;20118;-84
2021/05/06 01:32:17;;;;;;;6.57;1.55;;;5.10;99.90;;;3.46;85.95;99755.28;4867774;28;20103;-84
2021/05/06 01:34:43;;;;;;;13.15;1.70;;;5.10;99.90;;;3.52;85.39;99755.97;4871378;28;20107;-85
2021/05/06 01:37:12;;;;;;;14.95;1.13;;;5.10;99.90;;;3.53;84.95;99757.69;4872491;28;20096;-83
2021/05/06 01:40:08;;;;;;;21.70;2.30;;;5.20;99.90;;;3.56;84.81;99763.63;4873970;28;20111;-83
2021/05/06 01:42:37;;;;;;;7.53;2.00;;;5.10;99.90;;;3.59;84.94;99762.69;4852432;28;20099;-86
2021/05/06 01:45:18;;;;;;;9.25;1.35;;;5.20;99.90;;;3.59;84.70;99760.09;4871497;28;20131;-84
2021/05/06 01:47:43;;;;;;;17.25;2.15;;;5.20;99.90;;;3.59;84.40;99753.13;4873330;28;20106;-83
2021/05/06 01:58:31;;;;;;;16.38;2.15;;;5.10;99.90;;;3.54;84.54;99761.97;4851393;28;20084;-83
2021/05/06 02:00:58;;;;;;;7.80;1.52;;;5.10;99.90;;;3.55;83.99;99766.28;4872483;28;20517;-86
2021/05/06 02:03:20;;;;;;;10.02;2.00;;;5.20;99.90;;;3.57;84.42;99754.09;4871941;28;20091;-85
2021/05/06 02:05:43;;;;;;;10.10;2.17;;;;;;;3.55;84.72;99767.13;4874126;28;20214;-82
2021/05/06 02:08:06;;;;;;;11.68;1.90;;;5.20;99.90;;;3.59;84.19;99762.69;4873893;28;20079;-86
2021/05/06 02:10:29;;;;;;;11.02;2.17;;;5.20;99.90;;;3.55;84.20;99756.72;4873199;28;20102;-81
2021/05/06 02:12:54;;;;;;;18.95;2.70;;;5.10;99.90;;;3.49;84.42;99752.56;4869854;28;20082;-86
2021/05/06 02:15:20;;;;;;;8.32;1.38;;;5.00;99.90;;;3.41;84.98;99761.53;4870162;28;20088;-87
2021/05/06 02:17:45;;;;;;;15.40;1.88;;;5.00;99.90;;;3.36;85.52;99753.03;4869170;28;20130;-85
2021/05/06 02:20:09;;;;;;;8.05;1.60;;;5.00;99.90;;;3.35;84.52;99754.78;4873108;28;20450;-88
2021/05/06 02:22:33;;;;;;;15.70;1.70;;;4.90;99.90;;;3.35;84.74;99759.13;4871794;28;20080;-83
2021/05/06 02:24:56;;;;;;;22.33;2.05;;;5.00;99.90;;;3.35;85.14;99757.38;4872820;28;20092;-84
2021/05/06 02:27:19;;;;;;;16.85;1.80;;;5.00;99.90;;;3.35;85.22;99756.53;4872709;28;20499;-82
2021/05/06 02:29:42;;;;;;;25.50;2.15;;;4.90;99.90;;;3.34;84.30;99750.47;4873921;28;20149;-87
2021/05/06 02:32:06;;;;;;;11.85;1.83;;;4.90;99.90;;;3.27;84.79;99751.56;4871471;28;20597;-85
2021/05/06 02:34:29;;;;;;;17.17;1.73;;;4.80;99.90;;;3.16;85.34;99754.53;4872868;28;20122;-86
2021/05/06 02:36:52;;;;;;;12.73;1.58;;;4.80;99.90;;;3.15;85.50;99747.59;4871215;28;20092;-84
2021/05/06 02:39:15;;;;;;;9.80;1.73;;;4.80;99.90;;;3.14;85.29;99758.06;4874385;28;20103;-85
2021/05/06 02:41:38;;;;;;;17.55;1.95;;;4.80;99.90;;;3.11;85.49;99756.44;4871359;28;20095;-85
2021/05/06 02:44:00;;;;;;;11.23;1.50;;;4.80;99.90;;;3.08;85.57;99757.34;4870561;28;20103;-84
2021/05/06 02:46:26;;;;;;;11.20;1.88;;;4.70;99.90;;;3.09;85.69;99760.81;4872815;28;20083;-86
2021/05/06 02:48:48;;;;;;;15.13;2.05;;;4.80;99.90;;;3.14;85.12;99760.69;4871845;28;20076;-85
2021/05/06 02:51:12;;;;;;;10.88;1.67;;;4.80;99.90;;;3.20;84.39;99755.28;4873088;28;20084;-84
2021/05/06 02:53:37;;;;;;;9.10;1.50;;;4.90;99.90;;;3.24;84.50;99754.25;4870820;28;20155;-85
2021/05/06 02:56:06;;;;;;;10.35;1.67;;;4.80;99.90;;;3.20;84.98;99766.53;4872370;28;20418;-85
2021/05/06 02:58:45;;;;;;;8.27;1.10;;;4.80;99.90;;;3.22;84.65;99763.91;4870813;28;20573;-83
2021/05/06 03:03:50;;;;;;;11.35;2.10;;;4.70;99.90;;;3.01;85.03;99760.22;4869989;28;20143;-84
2021/05/06 03:06:18;;;;;;;12.65;1.63;;;4.70;99.90;;;3.01;85.24;99770.59;4871909;28;20837;-84
2021/05/06 03:08:44;;;;;;;8.15;1.50;;;4.70;99.90;;;3.00;85.66;99771.50;4867811;28;20446;-84
2021/05/06 03:11:27;;;;;;;10.68;1.60;;;4.70;99.90;;;3.02;85.72;99772.28;4870060;28;20126;-83
2021/05/06 03:14:16;;;;;;;13.30;1.70;;;4.70;99.90;;;3.07;85.14;99776.47;4870452;28;20074;-85
2021/05/06 03:24:46;;;;;;;17.10;2.28;;;4.80;99.90;;;3.20;85.29;99776.94;4871276;28;20095;-83
2021/05/06 03:27:13;;;;;;;6.82;1.48;;;4.80;99.90;;;3.19;84.75;99775.22;4868114;28;20084;-83
2021/05/06 03:29:40;;;;;;;14.18;1.55;;;;;;;3.20;84.68;99773.50;4870827;28;20099;-86
2021/05/06 03:32:09;;;;;;;14.68;1.77;;;4.80;99.90;;;3.14;84.64;99773.69;4869937;28;20101;-84
2021/05/06 03:34:48;;;;;;;4.80;1.30;;;6.40;99.90;;;3.04;85.13;99776.53;4871009;28;20137;-84
2021/05/06 03:42:36;;;;;;;11.95;1.75;;;;;;;3.02;85.27;99778.38;4868972;28;20126;-83
2021/05/06 03:45:14;;;;;;;11.25;2.13;;;4.60;99.90;;;3.00;85.78;99774.09;4871453;28;20099;-85
2021/05/06 03:48:11;;;;;;;22.77;2.17;;;4.60;99.90;;;3.02;85.17;99793.09;4869305;28;20114;-81
2021/05/06 04:03:09;;;;;;;4.95;1.10;;;4.70;99.90;;;3.04;84.95;99781.75;4869279;28;22874;-84
2021/05/06 04:12:57;;;;;;;19.10;1.75;;;;;;;3.11;85.15;99797.16;4865434;28;20498;-84
2021/05/06 04:15:40;;;;;;;11.85;1.52;;;4.60;99.90;;;3.08;84.75;99798.97;4870210;28;20092;-83
2021/05/06 04:18:08;;;;;;;9.73;1.95;;;4.70;99.90;;;3.12;84.83;99794.53;4866809;28;21604;-85
2021/05/06 04:26:01;;;;;;;4.72;1.10;;;4.80;99.90;;;3.18;84.49;99809.13;4871114;28;20101;-84
2021/05/06 04:36:35;;;;;;;11.18;1.50;;;4.80;99.90;;;3.25;84.41;99810.63;4870290;28;20086;-84
2021/05/06 04:39:00;;;;;;;8.77;1.33;;;4.80;99.90;;;3.26;84.66;99818.38;4850354;28;20096;-84
2021/05/06 04:41:35;;;;;;;14.32;2.30;;;4.80;99.90;;;3.27;84.13;99824.44;4849389;28;20446;-86
2021/05/06 04:54:57;;;;;;;15.75;1.88;;;4.90;99.90;;;3.34;84.56;99827.69;4869746;28;20468;-83
2021/05/06 04:57:56;;;;;;;16.45;2.03;;;4.90;99.90;;;3.38;83.99;99837.94;4869417;28;20099;-83
2021/05/06 05:03:33;;;;;;;10.65;1.85;;;5.00;99.90;;;3.43;84.36;99840.41;4867798;28;20091;-84
2021/05/06 05:05:56;;;;;;;9.35;2.08;;;5.00;99.90;;;3.44;83.69;99842.97;4866671;28;20090;-83
2021/05/06 05:08:19;;;;;;;12.95;1.42;;;5.00;99.90;;;3.44;83.55;99839.53;4869223;28;20146;-79
2021/05/06 05:10:52;;;;;;;13.00;1.63;;;5.00;99.90;;;3.44;83.68;99842.13;4872992;28;20095;-82
2021/05/06 05:13:35;;;;;;;16.13;1.45;;;5.00;99.90;;;3.47;84.49;99847.22;4873724;28;20458;-85
2021/05/06 05:19:00;;;;;;;15.18;1.80;;;5.10;99.90;;;3.57;82.89;99842.59;4873164;28;20165;-84
2021/05/06 05:23:23;;;;;;;15.35;2.10;;;5.10;99.90;;;3.60;83.42;99855.50;4871975;28;20169;-83
2021/05/06 05:24:21;;;;;;;7.53;1.58;;;5.10;99.90;;;3.59;83.76;99856.41;4873872;28;20225;-86
2021/05/06 05:26:44;;;;;;;5.50;1.33;;;5.10;99.90;;;3.60;82.81;99852.88;4855534;28;20400;-83
2021/05/06 05:29:07;;;;;;;16.75;1.38;;;5.20;99.90;;;3.65;83.03;99850.97;4854956;28;20130;-83
2021/05/06 05:31:31;;;;;;;8.82;1.30;;;5.20;99.90;;;3.69;82.87;99852.59;4872123;28;20099;-83
2021/05/06 05:33:56;;;;;;;13.65;2.30;;;5.20;99.90;;;3.74;84.07;99844.63;4873746;28;20087;-84
2021/05/06 05:36:20;;;;;;;14.37;1.70;;;5.30;99.90;;;3.76;83.37;99856.72;4858087;28;20159;-85
2021/05/06 05:38:52;;;;;;;14.48;2.78;;;5.30;99.90;;;3.80;82.97;99854.84;4851313;28;20089;-85
2021/05/06 05:41:37;;;;;;;5.78;1.58;;;5.40;99.90;;;3.92;83.45;99856.22;4853007;28;20455;-83
2021/05/06 05:44:25;;;;;;;15.00;2.15;;;5.40;99.90;;;3.93;81.73;99852.69;4872024;28;20074;-82
2021/05/06 05:54:55;;;;;;;19.63;1.77;;;5.60;99.90;;;4.15;81.13;99858.03;4870162;28;20101;-82
2021/05/06 05:57:18;;;;;;;8.68;1.92;;;;;;;4.25;80.72;99857.66;4873419;28;20080;-83
2021/05/06 05:59:43;;;;;;;13.15;1.60;;;5.70;99.90;;;4.46;80.17;99852.63;4873584;28;20605;-85
2021/05/06 06:02:07;;;;;;;6.15;1.02;;;6.00;99.90;;;4.76;77.91;99862.84;4872690;28;20076;-82
2021/05/06 06:04:29;;;;;;;21.52;1.80;;;6.10;99.90;;;4.78;78.24;99861.88;4871243;28;20093;-84
2021/05/06 06:06:52;;;;;;;9.25;1.67;;;5.00;99.90;;;4.48;78.43;99875.13;4869516;28;20090;-84
2021/05/06 06:09:17;;;;;;;7.63;1.38;;;5.80;99.90;;;4.48;79.92;99874.28;4872174;28;20204;-85
2021/05/06 06:11:40;;;;;;;9.77;2.13;;;5.80;99.90;;;4.44;81.05;99881.34;4871944;28;20090;-85
2021/05/06 06:14:07;;;;;;;12.77;1.75;;;5.80;99.90;;;4.46;80.45;99868.25;4873703;28;20539;-83
2021/05/06 06:16:31;;;;;;;15.23;2.40;;;6.00;99.90;;;4.73;77.92;99867.28;4871538;28;20081;-86
2021/05/06 06:18:56;;;;;;;11.98;1.38;;;6.30;99.90;;;5.22;76.17;99859.38;4870264;28;20082;-85
2021/05/06 06:21:22;;;;;;;12.88;1.88;;;6.60;99.90;;;5.55;74.87;99858.97;4872369;28;20088;-84
2021/05/06 06:23:45;;;;;;;7.78;1.25;;;6.50;99.90;;;5.32;74.64;99857.25;4872411;28;20684;-83
2021/05/06 06:26:08;;;;;;;18.27;1.48;;;6.60;99.90;;;5.52;75.04;99853.88;4873249;28;20096;-81
2021/05/06 06:28:37;;;;;;;6.78;1.67;;;6.50;99.90;;;5.39;75.16;99857.88;4873070;28;20100;-85
2021/05/06 06:31:00;;;;;;;7.88;1.38;;;6.80;99.90;;;5.77;72.64;99864.19;4871290;28;22823;-82
2021/05/06 06:33:24;;;;;;;6.53;1.55;;;6.70;99.90;;;6.02;73.44;99860.59;4871150;28;20081;-84
2021/05/06 06:35:49;;;;;;;10.90;1.42;;;7.10;99.90;;;6.28;71.58;99869.94;4871400;28;20543;-82
2021/05/06 06:38:11;;;;;;;7.97;1.30;;;7.50;99.90;;;7.38;68.43;99856.28;4872856;28;20168;-82
2021/05/06 06:40:34;;;;;;;16.23;1.75;;;8.80;99.90;;;8.78;62.97;99857.22;4873727;28;20124;-83
2021/05/06 06:42:57;;;;;;;8.13;1.80;;;8.70;99.90;;;8.14;63.95;99856.09;4873103;28;20528;-81
2021/05/06 06:45:21;;;;;;;12.02;1.30;;;8.40;99.90;;;8.25;63.98;99856.41;4870495;28;20087;-78
2021/05/06 06:47:44;;;;;;;12.07;2.05;;;8.60;99.90;;;8.41;63.39;99857.34;4870299;28;20514;-78
2021/05/06 06:50:09;;;;;;;7.57;0.95;;;9.10;99.90;;;9.14;61.28;99850.91;4873145;28;20434;-80
2021/05/06 06:52:32;;;;;;;13.85;1.60;;;8.60;99.90;;;8.22;65.80;99867.91;4872264;28;20089;-82
2021/05/06 06:54:55;;;;;;;7.47;1.42;;;8.90;99.90;;;8.50;64.01;99863.06;4872121;28;20092;-80
2021/05/06 06:57:18;;;;;;;11.85;2.10;;;8.80;99.90;;;8.46;66.39;99864.97;4871743;28;20086;-80
2021/05/06 06:59:41;;;;;;;11.90;1.98;;;9.00;99.90;;;8.15;63.69;99871.75;4870922;28;20122;-81
2021/05/06 07:02:04;;;;;;;6.03;1.50;;;8.80;99.90;;;8.20;65.51;99868.91;4871710;28;20095;-81
2021/05/06 07:04:28;;;;;;;10.32;1.45;;;8.60;99.90;;;7.85;67.13;99876.75;4872278;28;20077;-80
2021/05/06 07:06:53;;;;;;;4.88;1.17;;;8.20;99.90;;;7.23;69.99;99876.19;4869101;28;20081;-86
2021/05/06 07:09:15;;;;;;;6.57;1.08;;;7.70;99.90;;;6.52;69.33;99883.72;4870789;28;20174;-78
2021/05/06 07:11:39;;;;;;;6.18;1.35;;;7.40;99.90;;;6.13;70.51;99877.53;4872954;28;20082;-78
2021/05/06 07:14:03;;;;;;;9.07;1.30;;;7.40;99.90;;;6.28;70.75;99881.25;4871619;28;20131;-80
2021/05/06 07:16:26;;;;;;;9.02;1.20;;;7.70;99.90;;;7.39;70.33;99877.19;4870113;28;20080;-82
2021/05/06 07:18:49;;;;;;;14.20;1.60;;;8.70;99.90;;;8.62;63.37;99875.56;4871473;28;20116;-80
2021/05/06 07:21:12;;;;;;;11.40;1.58;;;9.20;99.90;;;9.10;62.44;99875.66;4871969;28;20477;-82
2021/05/06 07:23:35;;;;;;;8.20;1.75;;;9.30;99.90;;;9.35;60.10;99864.63;4872460;28;20086;-80
2021/05/06 07:26:00;;;;;;;10.27;1.95;;;10.10;99.90;;;10.11;58.36;99869.97;4872990;28;20090;-83
2021/05/06 07:28:29;;;;;;;8.82;1.40;;;10.50;99.90;;;10.13;58.73;99875.13;4869901;28;20082;-81
2021/05/06 07:30:53;;;;;;;10.52;1.70;;;10.10;99.90;;;10.00;61.00;99883.75;4869827;28;20483;-83
2021/05/06 07:33:16;;;;;;;17.50;1.80;;;10.40;99.90;;;10.17;59.90;99879.28;4863883;28;20073;-79
2021/05/06 07:35:41;;;;;;;9.88;1.95;;;9.90;99.90;;;9.92;62.60;99880.69;4870660;28;21466;-83
2021/05/06 07:38:04;;;;;;;14.23;1.63;;;10.90;99.90;;;11.36;55.17;99876.47;4871497;28;20115;-81
2021/05/06 07:40:28;;;;;;;9.15;1.73;;;10.60;99.90;;;10.08;56.64;99885.91;4870732;28;20077;-79
2021/05/06 07:42:51;;;;;;;9.32;1.27;;;9.70;99.90;;;9.79;59.50;99890.22;4871766;28;20086;-79
2021/05/06 07:45:14;;;;;;;11.35;2.15;;;10.30;99.90;;;10.67;56.03;99892.09;4870888;28;20081;-78
2021/05/06 07:47:37;;;;;;;14.48;1.70;;;10.40;99.90;;;10.80;56.65;99886.94;4870716;28;20142;-82
2021/05/06 07:50:01;;;;;;;9.50;1.70;;;10.50;99.90;;;10.45;56.08;99879.38;4870414;28;20191;-81
2021/05/06 07:52:26;;;;;;;18.40;2.15;;;10.20;99.90;;;10.27;54.59;99883.06;4868504;28;20466;-80
2021/05/06 07:54:49;;;;;;;11.73;2.10;;;10.10;99.90;;;9.36;57.70;99897.88;4869725;28;20086;-80
2021/05/06 07:57:13;;;;;;;13.98;1.48;;;9.90;99.90;;;10.02;54.62;99892.41;4872105;28;20087;-80
2021/05/06 07:59:36;;;;;;;7.00;1.20;;;11.00;99.90;;;12.02;51.13;99880.13;4870718;28;20440;-80
2021/05/06 08:02:00;;;;;;;10.23;1.23;;;11.80;99.90;;;12.70;49.05;99881.72;4871913;28;20086;-80
2021/05/06 08:04:23;;;;;;;7.85;1.10;;;11.80;99.90;;;12.31;47.06;99895.84;4867782;28;20116;-80
2021/05/06 08:06:46;;;;;;;9.45;1.70;;;11.50;99.90;;;12.01;49.29;99889.00;4870294;28;20077;-78
2021/05/06 08:09:09;;;;;;;16.17;1.63;;;11.60;99.90;;;12.11;51.74;99883.94;4869728;28;20087;-81
2021/05/06 08:11:32;;;;;;;14.18;1.50;;;12.20;99.90;;;12.33;50.53;99891.28;4871786;28;20491;-81
2021/05/06 08:13:55;;;;;;;7.85;1.05;;;11.80;99.90;;;11.18;51.98;99890.78;4870547;28;20037;-78
2021/05/06 08:16:18;;;;;;;12.65;1.67;;;11.10;99.90;;;10.51;53.28;99896.59;4869368;28;20095;-81
2021/05/06 08:18:41;;;;;;;10.02;1.13;;;10.60;99.90;;;10.28;54.10;99895.31;4871283;28;20088;-82
2021/05/06 08:21:06;;;;;;;9.00;1.05;;;10.40;99.90;;;9.86;52.42;99910.81;4867321;28;20085;-80
2021/05/06 08:23:29;;;;;;;10.95;1.67;;;10.30;99.90;;;10.14;53.02;99903.13;4869933;28;20104;-80
2021/05/06 08:25:52;;;;;;;11.10;1.95;;;9.80;99.90;;;9.26;57.45;99909.81;4869238;28;20125;-77
2021/05/06 08:28:15;;;;;;;10.48;1.63;;;8.40;99.90;;;9.10;55.45;99917.66;4868356;28;20494;-77
2021/05/06 08:30:39;;;;;;;11.75;1.55;;;9.50;99.90;;;8.79;58.06;99917.50;4868443;28;20080;-81
2021/05/06 08:33:03;;;;;;;5.55;1.35;;;10.00;99.90;;;9.18;56.62;99915.50;4868264;28;20082;-79
2021/05/06 08:35:26;;;;;;;13.18;1.40;;;9.90;99.90;;;8.83;58.09;99937.44;4869603;28;20163;-77
2021/05/06 08:37:49;;;;;;;11.68;1.80;;;9.60;99.90;;;8.49;57.20;99934.81;4869009;28;20078;-78
2021/05/06 08:40:12;;;;;;;13.88;1.52;;;9.40;99.90;;;8.52;60.50;99945.16;4869537;28;20080;-81
2021/05/06 08:42:36;;;;;;;7.03;1.35;;;9.40;99.90;;;8.38;59.75;99943.19;4864957;28;20433;-79
2021/05/06 08:44:58;;;;;;;9.15;1.00;;;9.10;99.90;;;7.94;60.95;99938.34;4870584;28;20587;-79
2021/05/06 08:47:22;;;;;;;9.43;1.52;;;9.00;99.90;;;7.96;61.31;99937.34;4870181;28;20125;-75
2021/05/06 08:49:47;;;;;;;9.80;1.45;;;9.20;99.90;;;8.06;60.93;99945.63;4870391;28;20083;-78
2021/05/06 08:52:15;;;;;;;7.22;1.30;;;9.20;99.90;;;8.06;58.70;99950.03;4869554;28;20079;-81
2021/05/06 08:54:40;;;;;;;15.05;1.52;;;9.20;99.90;;;8.24;61.22;99943.88;4869592;28;20084;-81
2021/05/06 08:57:05;;;;;;;8.48;2.13;;;9.30;99.90;;;8.47;59.88;99947.19;4867701;28;20068;-83
2021/05/06 08:59:29;;;;;;;13.43;1.48;;;9.00;99.90;;;7.74;58.50;99948.03;4870901;28;20122;-82
2021/05/06 09:02:05;;;;;;;6.13;1.30;;;8.70;99.90;;;7.52;60.41;99957.81;4830676;28;20079;-83
2021/05/06 09:04:39;;;;;;;6.88;1.40;;;8.90;99.90;;;7.98;61.25;99961.72;4816681;28;20084;-82
2021/05/06 09:07:05;;;;;;;13.18;1.85;;;9.20;99.90;;;8.43;57.03;99956.97;4826596;28;20433;-79
2021/05/06 09:10:15;;;;;;;9.45;2.17;;;10.20;99.90;;;9.95;56.36;99955.94;4810677;28;20095;-83
2021/05/06 09:12:43;;;;;;;7.97;1.60;;;10.60;99.90;;;9.95;54.88;99961.19;4808348;28;20596;-80
2021/05/06 09:15:15;;;;;;;6.30;1.90;;;;;;;9.95;52.12;99961.19;4793031;28;20079;-81
2021/05/06 09:18:13;;;;;;;10.45;2.28;;;10.40;99.90;;;9.63;53.79;99961.19;4829079;28;20132;-79
2021/05/06 09:21:00;;;;;;;;;;;10.30;99.90;;;9.49;55.14;99969.84;4817955;28;21824;-81
2021/05/06 09:23:27;;;;;;;;;;;10.00;99.90;;;8.59;55.48;99970.16;4794027;28;19961;-81
2021/05/06 09:25:52;;;;;;;15.43;1.52;;;9.20;99.90;;;8.13;57.74;99977.66;4774822;28;19969;-81
2021/05/06 09:28:17;;;;;;;6.18;1.58;;;9.00;99.90;;;7.94;58.49;99982.94;4818469;28;20108;-81
2021/05/06 09:30:57;;;;;;;6.68;1.33;;;9.00;99.90;;;7.92;56.89;99975.13;4804011;28;20085;-81
2021/05/06 09:33:35;;;;;;;6.35;1.20;;;9.30;99.90;;;8.43;58.34;99988.44;4805021;28;21850;-83
2021/05/06 09:36:31;;;;;;;7.28;1.70;;;9.40;99.90;;;8.53;57.24;99984.44;4806165;28;21138;-80
2021/05/06 09:39:00;;;;;;;13.65;2.08;;;9.50;99.90;;;8.45;58.77;99989.22;4813981;28;20173;-84
2021/05/06 09:41:35;;;;;;;9.68;1.48;;;9.50;99.90;;;8.36;56.65;99992.28;4782862;28;20181;-85
2021/05/06 09:44:28;;;;;;;5.95;1.05;;;9.30;99.90;;;8.21;57.61;99996.50;4821268;28;20084;-80
2021/05/06 09:46:57;;;;;;;9.48;1.67;;;9.30;99.90;;;8.18;58.59;99994.00;4811161;28;20087;-82
2021/05/06 09:49:38;;;;;;;6.72;0.90;;;9.10;99.90;;;8.00;58.34;99980.84;4807747;28;20085;-82
2021/05/06 09:52:29;;;;;;;6.25;1.20;;;9.40;99.90;;;8.36;56.20;99998.38;4796758;28;20083;-80
2021/05/06 09:55:12;;;;;;;4.05;0.88;;;9.60;99.90;;;8.69;56.19;99991.56;4821668;28;20199;-82
2021/05/06 09:57:36;;;;;;;6.68;1.23;;;9.80;99.90;;;8.85;56.86;99995.09;4811084;28;20099;-81
2021/05/06 10:00:27;;;;;;;7.03;1.58;;;9.70;99.90;;;8.56;55.60;100007.91;4795703;28;20092;-81
2021/05/06 10:03:36;;;;;;;7.28;1.50;;;9.30;99.90;;;8.31;56.77;99996.88;4804682;28;20539;-78
2021/05/06 10:06:31;;;;;;;10.93;1.85;;;9.50;99.90;;;8.47;58.17;99999.66;4798592;28;20177;-82
2021/05/06 10:09:19;;;;;;;5.55;1.40;;;9.40;99.90;;;8.41;56.13;99999.00;4808345;28;20562;-83
2021/05/06 10:11:42;;;;;;;13.52;1.60;;;9.90;99.90;;;8.93;58.46;99995.53;4831766;28;20076;-77
2021/05/06 10:14:06;;;;;;;6.63;1.70;;;9.80;99.90;;;8.88;57.24;100005.44;4813077;28;20514;-78
2021/05/06 10:16:29;;;;;;;8.98;1.70;;;10.20;99.90;;;9.50;58.29;99997.81;4820784;28;20169;-80
2021/05/06 10:19:19;;;;;;;3.83;1.08;;;10.60;99.90;;;9.78;55.96;100001.56;4825021;28;20102;-83
2021/05/06 10:21:52;;;;;;;8.55;1.48;;;10.60;99.90;;;9.73;57.17;100006.25;4797336;28;20070;-81
2021/05/06 10:24:36;;;;;;;8.57;1.00;;;10.60;99.90;;;9.52;54.30;100016.97;4820354;28;20144;-82
2021/05/06 10:27:15;;;;;;;13.85;1.42;;;10.30;99.90;;;9.41;53.98;100017.53;4812469;28;20084;-84
2021/05/06 10:29:56;;;;;;;6.72;1.25;;;10.50;99.90;;;9.71;54.45;100013.38;4801341;28;20151;-81
2021/05/06 10:32:20;;;;;;;12.05;1.73;;;10.40;99.90;;;9.61;54.08;100018.25;4857342;28;20276;-84
2021/05/06 10:34:46;;;;;;;1.75;0.80;;;10.40;99.90;;;9.56;54.99;100010.63;4871151;28;20082;-83
2021/05/06 10:37:09;;;;;;;;;;;10.40;99.90;;;9.44;53.68;100008.66;4871388;28;20093;-80
2021/05/06 10:39:41;;;;;;;10.70;0.90;;;10.60;99.90;;;9.63;52.41;100003.25;4870509;28;19953;-80
2021/05/06 10:42:39;;;;;;;6.65;0.73;;;10.50;99.90;;;9.56;48.86;100005.38;4872096;28;20105;-84
2021/05/06 10:45:30;;;;;;;2.92;0.77;;;10.40;99.90;;;9.40;49.50;100015.00;4860238;28;20071;-80
2021/05/06 10:47:55;;;;;;;7.53;1.20;;;10.30;99.90;;;9.37;50.35;100029.16;4871484;28;20103;-78
2021/05/06 10:50:21;;;;;;;3.72;0.68;;;10.40;99.90;;;9.52;52.33;100014.34;4873110;28;20082;-85
2021/05/06 10:52:46;;;;;;;8.60;0.98;;;10.50;99.90;;;9.71;50.54;100019.47;4868970;28;20092;-85
2021/05/06 10:55:13;;;;;;;5.32;1.00;;;10.80;99.90;;;9.98;49.82;100011.00;4870256;28;20457;-82
2021/05/06 10:57:36;;;;;;;4.55;0.85;;;10.90;99.90;;;10.07;48.69;100006.06;4868425;28;20081;-81
2021/05/06 11:00:01;;;;;;;5.68;1.10;;;11.70;99.90;;;11.13;49.23;100008.81;4869253;28;20099;-82
2021/05/06 11:02:50;;;;;;;6.40;1.38;;;11.50;99.90;;;10.52;47.43;100014.13;4870145;28;20086;-81
2021/05/06 11:05:15;;;;;;;3.05;0.82;;;11.00;99.90;;;9.94;46.88;100023.47;4871367;28;20077;-80
2021/05/06 11:07:38;;;;;;;6.28;0.80;;;10.60;99.90;;;9.63;47.39;100019.91;4867702;28;20373;-80
2021/05/06 11:10:04;;;;;;;6.35;1.02;;;10.70;99.90;;;9.91;48.54;100010.47;4871526;28;20141;-78
2021/05/06 11:12:39;;;;;;;8.60;1.48;;;11.20;99.90;;;10.43;46.98;100015.50;4849844;28;20083;-80
2021/05/06 11:15:33;;;;;;;6.37;1.10;;;11.70;99.90;;;11.01;46.25;100002.47;4869705;28;20431;-81
2021/05/06 11:18:03;;;;;;;4.05;1.00;;;11.40;99.90;;;10.36;44.85;99994.88;4871002;28;21074;-84
2021/05/06 11:20:52;;;;;;;5.22;1.00;;;11.40;99.90;;;10.53;46.04;100009.69;4852927;28;20413;-79
2021/05/06 11:23:30;;;;;;;13.75;1.20;;;11.40;99.90;;;10.59;47.66;100001.44;4851177;28;20085;-84
2021/05/06 11:26:07;;;;;;;3.90;1.10;;;11.70;99.90;;;11.22;45.97;100000.34;4871893;28;20124;-82
2021/05/06 11:28:51;;;;;;;7.35;2.10;;;12.20;99.90;;;11.41;44.19;100000.06;4851999;28;20079;-80
2021/05/06 11:31:17;;;;;;;7.05;1.52;;;12.20;99.90;;;11.59;45.90;99995.44;4865257;28;20069;-79
2021/05/06 11:33:40;;;;;;;;;;;12.30;99.90;;;11.38;44.54;100006.38;4869503;28;20096;-82
2021/05/06 11:36:13;;;;;;;7.20;1.00;;;12.00;99.90;;;10.90;44.06;100012.81;4869961;28;19997;-84
2021/05/06 11:38:52;;;;;;;5.00;1.40;;;11.40;99.90;;;10.36;47.70;100015.91;4868896;28;20107;-83
2021/05/06 11:41:17;;;;;;;3.33;0.93;;;11.10;99.90;;;10.05;48.13;100025.50;4870417;28;20069;-83
2021/05/06 11:43:45;;;;;;;4.57;0.95;;;10.70;99.90;;;9.55;46.90;100026.50;4870608;28;20472;-85
2021/05/06 11:46:13;;;;;;;6.50;0.93;;;10.50;99.90;;;9.35;48.10;100028.41;4871231;28;20073;-83
2021/05/06 11:48:36;;;;;;;4.03;0.75;;;10.30;99.90;;;9.14;47.54;100034.78;4869543;28;20543;-85
2021/05/06 11:51:00;;;;;;;4.25;0.93;;;10.40;99.90;;;9.38;48.62;100030.00;4869401;28;20509;-83
2021/05/06 11:53:23;;;;;;;7.40;1.23;;;;;;;9.98;47.23;100018.91;4867993;28;20078;-84
2021/05/06 11:55:46;;;;;;;4.50;1.30;;;11.10;99.90;;;10.24;47.49;100026.19;4872731;28;20081;-82
2021/05/06 11:58:10;;;;;;;3.85;0.70;;;11.30;99.90;;;10.46;46.94;100011.84;4869411;28;20073;-82
2021/05/06 12:00:34;;;;;;;4.47;1.20;;;11.50;99.90;;;10.55;46.67;100026.25;4868544;28;20161;-83
2021/05/06 12:03:01;;;;;;;4.97;1.05;;;11.20;99.90;;;10.17;47.21;100022.22;4871175;28;20088;-81
2021/05/06 12:05:44;;;;;;;5.28;1.42;;;11.30;99.90;;;10.11;48.78;100030.44;4869302;28;20156;-84
2021/05/06 12:08:08;;;;;;;6.60;1.08;;;11.10;99.90;;;10.13;45.83;100015.41;4867996;28;20423;-86
2021/05/06 12:10:39;;;;;;;6.43;1.10;;;10.90;99.90;;;9.87;48.55;100014.22;4867911;28;20595;-82
2021/05/06 12:13:03;;;;;;;6.03;1.13;;;11.10;99.90;;;9.99;51.76;100029.31;4868333;28;20074;-81
2021/05/06 12:15:26;;;;;;;7.07;1.08;;;11.40;99.90;;;10.56;49.98;100022.66;4850509;28;20085;-84
2021/05/06 12:17:49;;;;;;;6.13;1.25;;;12.00;99.90;;;10.90;47.08;100015.44;4850330;28;20515;-80
2021/05/06 12:20:13;;;;;;;4.18;1.20;;;11.90;99.90;;;10.93;49.46;100026.66;4852444;28;20085;-83
2021/05/06 12:22:37;;;;;;;5.25;0.95;;;12.20;99.90;;;11.15;46.53;100014.81;4850193;28;20515;-83
2021/05/06 12:24:59;;;;;;;7.10;0.90;;;11.80;99.90;;;10.60;46.77;100024.19;4851244;28;20135;-83
2021/05/06 12:27:25;;;;;;;8.13;1.15;;;11.10;99.90;;;9.84;48.27;100023.13;4851469;28;20084;-83
2021/05/06 12:29:50;;;;;;;;;;;11.00;99.90;;;9.66;47.29;100024.13;4850499;28;20079;-83
2021/05/06 12:32:20;;;;;;;4.32;1.17;;;11.00;99.90;;;10.01;49.55;100018.72;4872260;28;19967;-80
2021/05/06 12:34:43;;;;;;;7.15;1.20;;;11.60;99.90;;;10.87;47.14;100012.03;4870058;28;20072;-81
2021/05/06 12:37:07;;;;;;;8.00;1.17;;;11.90;99.90;;;10.84;48.34;100012.22;4869890;28;20081;-81
2021/05/06 12:39:31;;;;;;;5.28;1.10;;;11.80;99.90;;;10.92;49.01;100010.94;4869647;28;20077;-84